sensor_id;sensor_type;location;lat;lon;timestamp;P1;durP1;ratioP1;P2;durP2;ratioP2
74851;SDS011;63400;50.650;6.832;2023-08-08T00:01:55;14.55;;;2.72;;
74851;SDS011;63400;50.650;6.832;2023-08-08T00:04:20;14.98;;;3.17;;
74851;SDS011;63400;50.650;6.832;2023-08-08T00:06:46;10.05;;;1.98;;
74851;SDS011;63400;50.650;6.832;2023-08-08T00:09:11;17.17;;;3.13;;
74851;SDS011;63400;50.650;6.832;2023-08-08T00:11:37;13.30;;;2.63;;
74851;SDS011;63400;50.650;6.832;2023-08-08T00:14:02;12.27;;;2.53;;
74851;SDS011;63400;50.650;6.832;2023-08-08T00:16:28;14.45;;;3.28;;
74851;SDS011;63400;50.650;6.832;2023-08-08T00:18:54;12.88;;;3.00;;
74851;SDS011;63400;50.650;6.832;2023-08-08T00:21:19;13.95;;;2.42;;
74851;SDS011;63400;50.650;6.832;2023-08-08T00:23:45;10.57;;;2.05;;
74851;SDS011;63400;50.650;6.832;2023-08-08T00:26:11;14.27;;;2.70;;
74851;SDS011;63400;50.650;6.832;2023-08-08T00:28:37;14.00;;;2.35;;
74851;SDS011;63400;50.650;6.832;2023-08-08T00:31:02;14.07;;;2.67;;
74851;SDS011;63400;50.650;6.832;2023-08-08T00:33:28;12.60;;;2.97;;
74851;SDS011;63400;50.650;6.832;2023-08-08T00:35:54;12.70;;;2.67;;
74851;SDS011;63400;50.650;6.832;2023-08-08T00:38:19;13.27;;;2.92;;
74851;SDS011;63400;50.650;6.832;2023-08-08T00:40:45;15.27;;;2.60;;
74851;SDS011;63400;50.650;6.832;2023-08-08T00:43:10;10.75;;;2.47;;
74851;SDS011;63400;50.650;6.832;2023-08-08T00:45:36;14.00;;;3.08;;
74851;SDS011;63400;50.650;6.832;2023-08-08T00:48:02;14.98;;;2.83;;
74851;SDS011;63400;50.650;6.832;2023-08-08T00:50:28;10.70;;;2.28;;
74851;SDS011;63400;50.650;6.832;2023-08-08T00:52:53;13.05;;;3.00;;
74851;SDS011;63400;50.650;6.832;2023-08-08T00:55:19;14.57;;;3.03;;
74851;SDS011;63400;50.650;6.832;2023-08-08T00:57:45;15.98;;;3.22;;
74851;SDS011;63400;50.650;6.832;2023-08-08T01:00:11;14.20;;;3.42;;
74851;SDS011;63400;50.650;6.832;2023-08-08T01:02:37;12.75;;;2.83;;
74851;SDS011;63400;50.650;6.832;2023-08-08T01:05:02;16.90;;;3.92;;
74851;SDS011;63400;50.650;6.832;2023-08-08T01:09:59;12.43;;;2.53;;
74851;SDS011;63400;50.650;6.832;2023-08-08T01:12:32;15.00;;;3.25;;
74851;SDS011;63400;50.650;6.832;2023-08-08T01:14:59;14.40;;;3.15;;
74851;SDS011;63400;50.650;6.832;2023-08-08T01:17:26;13.30;;;3.03;;
74851;SDS011;63400;50.650;6.832;2023-08-08T01:19:52;14.77;;;3.00;;
74851;SDS011;63400;50.650;6.832;2023-08-08T01:22:30;12.60;;;2.33;;
74851;SDS011;63400;50.650;6.832;2023-08-08T01:25:01;12.98;;;3.08;;
74851;SDS011;63400;50.650;6.832;2023-08-08T01:27:27;11.32;;;2.92;;
74851;SDS011;63400;50.650;6.832;2023-08-08T01:29:53;14.25;;;3.08;;
74851;SDS011;63400;50.650;6.832;2023-08-08T01:32:18;13.02;;;2.83;;
74851;SDS011;63400;50.650;6.832;2023-08-08T01:34:44;13.38;;;2.67;;
74851;SDS011;63400;50.650;6.832;2023-08-08T01:37:17;12.82;;;2.53;;
74851;SDS011;63400;50.650;6.832;2023-08-08T01:39:46;14.00;;;3.08;;
74851;SDS011;63400;50.650;6.832;2023-08-08T01:42:12;13.70;;;2.67;;
74851;SDS011;63400;50.650;6.832;2023-08-08T01:44:38;13.73;;;2.65;;
74851;SDS011;63400;50.650;6.832;2023-08-08T01:47:08;12.27;;;2.63;;
74851;SDS011;63400;50.650;6.832;2023-08-08T01:49:34;15.07;;;3.60;;
74851;SDS011;63400;50.650;6.832;2023-08-08T01:51:59;14.55;;;2.85;;
74851;SDS011;63400;50.650;6.832;2023-08-08T01:54:25;15.68;;;3.33;;
74851;SDS011;63400;50.650;6.832;2023-08-08T01:56:51;13.93;;;3.22;;
74851;SDS011;63400;50.650;6.832;2023-08-08T01:59:16;13.63;;;2.70;;
74851;SDS011;63400;50.650;6.832;2023-08-08T02:01:42;15.52;;;3.17;;
74851;SDS011;63400;50.650;6.832;2023-08-08T02:04:07;14.45;;;2.95;;
74851;SDS011;63400;50.650;6.832;2023-08-08T02:06:33;12.55;;;2.30;;
74851;SDS011;63400;50.650;6.832;2023-08-08T02:08:58;16.50;;;3.15;;
74851;SDS011;63400;50.650;6.832;2023-08-08T02:11:24;16.35;;;3.40;;
74851;SDS011;63400;50.650;6.832;2023-08-08T02:13:49;16.48;;;3.03;;
74851;SDS011;63400;50.650;6.832;2023-08-08T02:16:15;13.13;;;2.70;;
74851;SDS011;63400;50.650;6.832;2023-08-08T02:18:40;11.48;;;2.55;;
74851;SDS011;63400;50.650;6.832;2023-08-08T02:21:09;14.13;;;2.78;;
74851;SDS011;63400;50.650;6.832;2023-08-08T02:23:35;12.88;;;2.42;;
74851;SDS011;63400;50.650;6.832;2023-08-08T02:26:00;10.73;;;2.40;;
74851;SDS011;63400;50.650;6.832;2023-08-08T02:28:26;13.57;;;2.80;;
74851;SDS011;63400;50.650;6.832;2023-08-08T02:30:52;14.80;;;3.03;;
74851;SDS011;63400;50.650;6.832;2023-08-08T02:33:18;15.93;;;2.95;;
74851;SDS011;63400;50.650;6.832;2023-08-08T02:35:44;16.73;;;2.90;;
74851;SDS011;63400;50.650;6.832;2023-08-08T02:38:09;13.48;;;2.45;;
74851;SDS011;63400;50.650;6.832;2023-08-08T02:40:35;12.88;;;2.38;;
74851;SDS011;63400;50.650;6.832;2023-08-08T02:43:00;13.80;;;2.97;;
74851;SDS011;63400;50.650;6.832;2023-08-08T02:45:26;15.95;;;3.22;;
74851;SDS011;63400;50.650;6.832;2023-08-08T02:47:52;12.15;;;2.22;;
74851;SDS011;63400;50.650;6.832;2023-08-08T02:50:17;18.33;;;3.50;;
74851;SDS011;63400;50.650;6.832;2023-08-08T02:52:42;13.77;;;2.38;;
74851;SDS011;63400;50.650;6.832;2023-08-08T02:55:08;13.40;;;2.75;;
74851;SDS011;63400;50.650;6.832;2023-08-08T02:57:34;15.55;;;2.90;;
74851;SDS011;63400;50.650;6.832;2023-08-08T02:59:59;15.80;;;3.33;;
74851;SDS011;63400;50.650;6.832;2023-08-08T03:02:25;14.93;;;2.58;;
74851;SDS011;63400;50.650;6.832;2023-08-08T03:04:50;13.98;;;2.42;;
74851;SDS011;63400;50.650;6.832;2023-08-08T03:07:16;11.32;;;1.80;;
74851;SDS011;63400;50.650;6.832;2023-08-08T03:09:42;14.93;;;2.92;;
74851;SDS011;63400;50.650;6.832;2023-08-08T03:12:07;16.35;;;2.35;;
74851;SDS011;63400;50.650;6.832;2023-08-08T03:14:33;15.05;;;2.58;;
74851;SDS011;63400;50.650;6.832;2023-08-08T03:16:59;18.08;;;3.45;;
74851;SDS011;63400;50.650;6.832;2023-08-08T03:19:25;16.90;;;3.00;;
74851;SDS011;63400;50.650;6.832;2023-08-08T03:21:51;14.38;;;2.15;;
74851;SDS011;63400;50.650;6.832;2023-08-08T03:24:16;15.73;;;2.90;;
74851;SDS011;63400;50.650;6.832;2023-08-08T03:26:42;15.07;;;3.03;;
74851;SDS011;63400;50.650;6.832;2023-08-08T03:29:07;14.85;;;2.85;;
74851;SDS011;63400;50.650;6.832;2023-08-08T03:31:36;16.33;;;2.72;;
74851;SDS011;63400;50.650;6.832;2023-08-08T03:34:04;16.45;;;3.05;;
74851;SDS011;63400;50.650;6.832;2023-08-08T03:36:30;18.80;;;3.80;;
74851;SDS011;63400;50.650;6.832;2023-08-08T03:38:55;16.15;;;3.05;;
74851;SDS011;63400;50.650;6.832;2023-08-08T03:41:21;21.55;;;5.05;;
74851;SDS011;63400;50.650;6.832;2023-08-08T03:43:46;29.95;;;5.80;;
74851;SDS011;63400;50.650;6.832;2023-08-08T03:46:12;25.88;;;5.85;;
74851;SDS011;63400;50.650;6.832;2023-08-08T03:48:38;17.45;;;3.38;;
74851;SDS011;63400;50.650;6.832;2023-08-08T03:51:06;19.40;;;3.95;;
74851;SDS011;63400;50.650;6.832;2023-08-08T03:53:32;13.07;;;2.47;;
74851;SDS011;63400;50.650;6.832;2023-08-08T03:55:58;16.35;;;3.13;;
74851;SDS011;63400;50.650;6.832;2023-08-08T03:58:23;18.95;;;3.70;;
74851;SDS011;63400;50.650;6.832;2023-08-08T04:00:49;15.27;;;2.42;;
74851;SDS011;63400;50.650;6.832;2023-08-08T04:03:15;16.77;;;3.45;;
74851;SDS011;63400;50.650;6.832;2023-08-08T04:05:43;14.80;;;2.67;;
74851;SDS011;63400;50.650;6.832;2023-08-08T04:08:11;15.20;;;2.88;;
74851;SDS011;63400;50.650;6.832;2023-08-08T04:10:37;14.07;;;2.83;;
74851;SDS011;63400;50.650;6.832;2023-08-08T04:13:02;15.82;;;3.08;;
74851;SDS011;63400;50.650;6.832;2023-08-08T04:15:28;16.48;;;3.03;;
74851;SDS011;63400;50.650;6.832;2023-08-08T04:17:53;15.23;;;2.67;;
74851;SDS011;63400;50.650;6.832;2023-08-08T04:20:19;13.85;;;2.45;;
74851;SDS011;63400;50.650;6.832;2023-08-08T04:22:44;9.55;;;2.38;;
74851;SDS011;63400;50.650;6.832;2023-08-08T04:25:10;13.05;;;2.47;;
74851;SDS011;63400;50.650;6.832;2023-08-08T04:27:35;15.18;;;3.05;;
74851;SDS011;63400;50.650;6.832;2023-08-08T04:30:04;14.65;;;2.78;;
74851;SDS011;63400;50.650;6.832;2023-08-08T04:32:30;12.90;;;2.45;;
74851;SDS011;63400;50.650;6.832;2023-08-08T04:34:55;17.17;;;3.10;;
74851;SDS011;63400;50.650;6.832;2023-08-08T04:37:21;15.15;;;2.95;;
74851;SDS011;63400;50.650;6.832;2023-08-08T04:39:46;12.52;;;2.40;;
74851;SDS011;63400;50.650;6.832;2023-08-08T04:42:12;14.15;;;2.72;;
74851;SDS011;63400;50.650;6.832;2023-08-08T04:44:37;14.48;;;2.60;;
74851;SDS011;63400;50.650;6.832;2023-08-08T04:47:04;18.15;;;3.47;;
74851;SDS011;63400;50.650;6.832;2023-08-08T04:49:29;17.52;;;3.60;;
74851;SDS011;63400;50.650;6.832;2023-08-08T04:51:55;18.58;;;3.72;;
74851;SDS011;63400;50.650;6.832;2023-08-08T04:54:21;16.85;;;3.20;;
74851;SDS011;63400;50.650;6.832;2023-08-08T04:56:46;19.73;;;3.38;;
74851;SDS011;63400;50.650;6.832;2023-08-08T04:59:11;16.13;;;3.33;;
74851;SDS011;63400;50.650;6.832;2023-08-08T05:01:37;18.50;;;4.15;;
74851;SDS011;63400;50.650;6.832;2023-08-08T05:04:03;18.55;;;3.47;;
74851;SDS011;63400;50.650;6.832;2023-08-08T05:06:29;16.60;;;3.40;;
74851;SDS011;63400;50.650;6.832;2023-08-08T05:08:55;14.10;;;2.78;;
74851;SDS011;63400;50.650;6.832;2023-08-08T05:11:22;15.93;;;3.50;;
74851;SDS011;63400;50.650;6.832;2023-08-08T05:13:47;14.27;;;3.20;;
74851;SDS011;63400;50.650;6.832;2023-08-08T05:16:13;13.30;;;3.20;;
74851;SDS011;63400;50.650;6.832;2023-08-08T05:18:39;15.85;;;3.13;;
74851;SDS011;63400;50.650;6.832;2023-08-08T05:21:04;14.98;;;3.03;;
74851;SDS011;63400;50.650;6.832;2023-08-08T05:23:30;15.38;;;2.85;;
74851;SDS011;63400;50.650;6.832;2023-08-08T05:25:56;14.77;;;3.15;;
74851;SDS011;63400;50.650;6.832;2023-08-08T05:28:24;14.30;;;3.15;;
74851;SDS011;63400;50.650;6.832;2023-08-08T05:30:49;16.00;;;3.30;;
74851;SDS011;63400;50.650;6.832;2023-08-08T05:33:15;15.02;;;2.97;;
74851;SDS011;63400;50.650;6.832;2023-08-08T05:35:41;16.23;;;3.67;;
74851;SDS011;63400;50.650;6.832;2023-08-08T05:38:07;21.58;;;5.43;;
74851;SDS011;63400;50.650;6.832;2023-08-08T05:40:35;27.20;;;5.63;;
74851;SDS011;63400;50.650;6.832;2023-08-08T05:43:02;26.52;;;5.70;;
74851;SDS011;63400;50.650;6.832;2023-08-08T05:45:28;29.33;;;6.50;;
74851;SDS011;63400;50.650;6.832;2023-08-08T05:47:54;31.42;;;6.95;;
74851;SDS011;63400;50.650;6.832;2023-08-08T05:50:21;37.38;;;7.88;;
74851;SDS011;63400;50.650;6.832;2023-08-08T05:52:46;39.67;;;8.20;;
74851;SDS011;63400;50.650;6.832;2023-08-08T05:55:12;41.70;;;8.93;;
74851;SDS011;63400;50.650;6.832;2023-08-08T05:57:37;27.05;;;6.97;;
74851;SDS011;63400;50.650;6.832;2023-08-08T06:00:06;33.22;;;7.78;;
74851;SDS011;63400;50.650;6.832;2023-08-08T06:02:36;36.17;;;7.95;;
74851;SDS011;63400;50.650;6.832;2023-08-08T06:05:01;37.15;;;8.13;;
74851;SDS011;63400;50.650;6.832;2023-08-08T06:07:26;36.17;;;7.65;;
74851;SDS011;63400;50.650;6.832;2023-08-08T06:09:52;28.98;;;6.78;;
74851;SDS011;63400;50.650;6.832;2023-08-08T06:12:17;27.50;;;6.28;;
74851;SDS011;63400;50.650;6.832;2023-08-08T06:14:42;25.27;;;5.95;;
74851;SDS011;63400;50.650;6.832;2023-08-08T06:17:08;23.48;;;5.93;;
74851;SDS011;63400;50.650;6.832;2023-08-08T06:19:34;25.77;;;6.43;;
74851;SDS011;63400;50.650;6.832;2023-08-08T06:22:00;27.35;;;6.65;;
74851;SDS011;63400;50.650;6.832;2023-08-08T06:24:25;30.15;;;6.63;;
74851;SDS011;63400;50.650;6.832;2023-08-08T06:26:50;26.85;;;6.10;;
74851;SDS011;63400;50.650;6.832;2023-08-08T06:29:19;24.38;;;6.03;;
74851;SDS011;63400;50.650;6.832;2023-08-08T06:31:44;26.75;;;6.30;;
74851;SDS011;63400;50.650;6.832;2023-08-08T06:34:13;25.10;;;5.80;;
74851;SDS011;63400;50.650;6.832;2023-08-08T06:36:38;26.42;;;6.85;;
74851;SDS011;63400;50.650;6.832;2023-08-08T06:39:04;23.70;;;5.72;;
74851;SDS011;63400;50.650;6.832;2023-08-08T06:41:30;23.55;;;5.78;;
74851;SDS011;63400;50.650;6.832;2023-08-08T06:43:56;24.70;;;5.93;;
74851;SDS011;63400;50.650;6.832;2023-08-08T06:46:22;18.95;;;5.10;;
74851;SDS011;63400;50.650;6.832;2023-08-08T06:48:49;18.83;;;4.68;;
74851;SDS011;63400;50.650;6.832;2023-08-08T06:51:15;17.83;;;5.07;;
74851;SDS011;63400;50.650;6.832;2023-08-08T06:53:41;20.23;;;5.45;;
74851;SDS011;63400;50.650;6.832;2023-08-08T06:56:06;21.80;;;5.40;;
74851;SDS011;63400;50.650;6.832;2023-08-08T06:58:32;26.05;;;6.28;;
74851;SDS011;63400;50.650;6.832;2023-08-08T07:00:57;22.45;;;5.75;;
74851;SDS011;63400;50.650;6.832;2023-08-08T07:03:23;20.83;;;5.15;;
74851;SDS011;63400;50.650;6.832;2023-08-08T07:05:48;19.85;;;5.10;;
74851;SDS011;63400;50.650;6.832;2023-08-08T07:08:17;20.25;;;5.68;;
74851;SDS011;63400;50.650;6.832;2023-08-08T07:10:47;17.35;;;5.00;;
74851;SDS011;63400;50.650;6.832;2023-08-08T07:13:13;20.20;;;5.35;;
74851;SDS011;63400;50.650;6.832;2023-08-08T07:15:40;17.17;;;5.00;;
74851;SDS011;63400;50.650;6.832;2023-08-08T07:18:06;18.10;;;5.07;;
74851;SDS011;63400;50.650;6.832;2023-08-08T07:20:31;19.30;;;4.90;;
74851;SDS011;63400;50.650;6.832;2023-08-08T07:22:57;18.33;;;4.82;;
74851;SDS011;63400;50.650;6.832;2023-08-08T07:25:22;20.60;;;5.75;;
74851;SDS011;63400;50.650;6.832;2023-08-08T07:27:48;16.15;;;4.28;;
74851;SDS011;63400;50.650;6.832;2023-08-08T07:30:16;17.17;;;4.65;;
74851;SDS011;63400;50.650;6.832;2023-08-08T07:32:42;14.10;;;4.57;;
74851;SDS011;63400;50.650;6.832;2023-08-08T07:35:07;16.50;;;4.47;;
74851;SDS011;63400;50.650;6.832;2023-08-08T07:37:34;17.80;;;4.72;;
74851;SDS011;63400;50.650;6.832;2023-08-08T07:39:59;19.50;;;4.80;;
74851;SDS011;63400;50.650;6.832;2023-08-08T07:42:25;15.43;;;4.28;;
74851;SDS011;63400;50.650;6.832;2023-08-08T07:44:51;17.40;;;4.57;;
74851;SDS011;63400;50.650;6.832;2023-08-08T07:47:17;16.23;;;4.20;;
74851;SDS011;63400;50.650;6.832;2023-08-08T07:49:42;15.63;;;4.00;;
74851;SDS011;63400;50.650;6.832;2023-08-08T07:52:07;16.52;;;4.28;;
74851;SDS011;63400;50.650;6.832;2023-08-08T07:54:33;17.42;;;5.47;;
74851;SDS011;63400;50.650;6.832;2023-08-08T07:56:59;18.85;;;5.07;;
74851;SDS011;63400;50.650;6.832;2023-08-08T07:59:25;16.25;;;4.57;;
74851;SDS011;63400;50.650;6.832;2023-08-08T08:01:51;18.23;;;5.10;;
74851;SDS011;63400;50.650;6.832;2023-08-08T08:04:17;15.85;;;4.40;;
74851;SDS011;63400;50.650;6.832;2023-08-08T08:06:43;14.73;;;4.22;;
74851;SDS011;63400;50.650;6.832;2023-08-08T08:09:08;16.75;;;4.50;;
74851;SDS011;63400;50.650;6.832;2023-08-08T08:11:34;13.88;;;3.88;;
74851;SDS011;63400;50.650;6.832;2023-08-08T08:13:59;14.23;;;3.63;;
74851;SDS011;63400;50.650;6.832;2023-08-08T08:16:25;12.63;;;3.25;;
74851;SDS011;63400;50.650;6.832;2023-08-08T08:18:50;12.82;;;3.95;;
74851;SDS011;63400;50.650;6.832;2023-08-08T08:21:16;14.18;;;4.03;;
74851;SDS011;63400;50.650;6.832;2023-08-08T08:23:42;16.55;;;4.35;;
74851;SDS011;63400;50.650;6.832;2023-08-08T08:26:09;17.02;;;4.68;;
74851;SDS011;63400;50.650;6.832;2023-08-08T08:28:34;15.57;;;4.07;;
74851;SDS011;63400;50.650;6.832;2023-08-08T08:31:04;14.07;;;3.80;;
74851;SDS011;63400;50.650;6.832;2023-08-08T08:33:35;14.52;;;3.45;;
74851;SDS011;63400;50.650;6.832;2023-08-08T08:36:00;15.77;;;4.43;;
74851;SDS011;63400;50.650;6.832;2023-08-08T08:38:26;12.85;;;3.88;;
74851;SDS011;63400;50.650;6.832;2023-08-08T08:40:51;13.40;;;3.45;;
74851;SDS011;63400;50.650;6.832;2023-08-08T08:43:19;13.40;;;3.83;;
74851;SDS011;63400;50.650;6.832;2023-08-08T08:45:47;14.23;;;3.65;;
74851;SDS011;63400;50.650;6.832;2023-08-08T08:48:15;13.20;;;3.42;;
74851;SDS011;63400;50.650;6.832;2023-08-08T08:50:41;16.60;;;4.05;;
74851;SDS011;63400;50.650;6.832;2023-08-08T08:53:08;15.27;;;3.97;;
74851;SDS011;63400;50.650;6.832;2023-08-08T08:58:00;20.38;;;5.05;;
74851;SDS011;63400;50.650;6.832;2023-08-08T09:00:26;13.45;;;3.78;;
74851;SDS011;63400;50.650;6.832;2023-08-08T09:02:52;16.15;;;4.28;;
74851;SDS011;63400;50.650;6.832;2023-08-08T09:05:20;15.50;;;4.03;;
74851;SDS011;63400;50.650;6.832;2023-08-08T09:07:49;12.50;;;3.63;;
74851;SDS011;63400;50.650;6.832;2023-08-08T09:10:16;16.65;;;4.32;;
74851;SDS011;63400;50.650;6.832;2023-08-08T09:12:43;18.02;;;4.53;;
74851;SDS011;63400;50.650;6.832;2023-08-08T09:15:09;16.73;;;4.35;;
74851;SDS011;63400;50.650;6.832;2023-08-08T09:17:36;19.38;;;4.28;;
74851;SDS011;63400;50.650;6.832;2023-08-08T09:20:01;16.52;;;4.65;;
74851;SDS011;63400;50.650;6.832;2023-08-08T09:22:28;16.00;;;4.03;;
74851;SDS011;63400;50.650;6.832;2023-08-08T09:24:54;13.52;;;4.20;;
74851;SDS011;63400;50.650;6.832;2023-08-08T09:27:20;16.17;;;4.25;;
74851;SDS011;63400;50.650;6.832;2023-08-08T09:29:46;12.70;;;3.58;;
74851;SDS011;63400;50.650;6.832;2023-08-08T09:32:11;13.70;;;3.92;;
74851;SDS011;63400;50.650;6.832;2023-08-08T09:34:37;17.30;;;4.68;;
74851;SDS011;63400;50.650;6.832;2023-08-08T09:37:06;16.35;;;4.55;;
74851;SDS011;63400;50.650;6.832;2023-08-08T09:39:31;17.02;;;4.60;;
74851;SDS011;63400;50.650;6.832;2023-08-08T09:41:57;16.30;;;4.47;;
74851;SDS011;63400;50.650;6.832;2023-08-08T09:44:26;15.23;;;4.45;;
74851;SDS011;63400;50.650;6.832;2023-08-08T09:46:54;13.70;;;4.05;;
74851;SDS011;63400;50.650;6.832;2023-08-08T09:49:20;13.77;;;3.92;;
74851;SDS011;63400;50.650;6.832;2023-08-08T09:51:47;15.57;;;4.57;;
74851;SDS011;63400;50.650;6.832;2023-08-08T09:54:13;14.70;;;4.22;;
74851;SDS011;63400;50.650;6.832;2023-08-08T09:56:39;16.85;;;4.57;;
74851;SDS011;63400;50.650;6.832;2023-08-08T09:59:05;17.90;;;4.60;;
74851;SDS011;63400;50.650;6.832;2023-08-08T10:01:31;18.52;;;5.20;;
74851;SDS011;63400;50.650;6.832;2023-08-08T10:03:56;17.77;;;4.70;;
74851;SDS011;63400;50.650;6.832;2023-08-08T10:06:22;22.77;;;5.68;;
74851;SDS011;63400;50.650;6.832;2023-08-08T10:08:47;21.48;;;5.43;;
74851;SDS011;63400;50.650;6.832;2023-08-08T10:11:13;19.48;;;4.90;;
74851;SDS011;63400;50.650;6.832;2023-08-08T10:13:46;18.67;;;5.35;;
74851;SDS011;63400;50.650;6.832;2023-08-08T10:16:14;18.23;;;4.43;;
74851;SDS011;63400;50.650;6.832;2023-08-08T10:18:41;21.55;;;5.50;;
74851;SDS011;63400;50.650;6.832;2023-08-08T10:21:06;20.00;;;5.32;;
74851;SDS011;63400;50.650;6.832;2023-08-08T10:23:37;20.73;;;5.80;;
74851;SDS011;63400;50.650;6.832;2023-08-08T10:26:16;21.08;;;5.20;;
74851;SDS011;63400;50.650;6.832;2023-08-08T10:28:52;16.58;;;4.47;;
74851;SDS011;63400;50.650;6.832;2023-08-08T10:31:19;21.60;;;5.63;;
74851;SDS011;63400;50.650;6.832;2023-08-08T10:33:45;22.08;;;5.90;;
74851;SDS011;63400;50.650;6.832;2023-08-08T10:36:11;20.00;;;5.38;;
74851;SDS011;63400;50.650;6.832;2023-08-08T10:38:49;24.63;;;6.25;;
74851;SDS011;63400;50.650;6.832;2023-08-08T10:41:19;22.05;;;5.80;;
74851;SDS011;63400;50.650;6.832;2023-08-08T10:43:55;21.65;;;5.72;;
74851;SDS011;63400;50.650;6.832;2023-08-08T10:46:32;22.33;;;5.65;;
74851;SDS011;63400;50.650;6.832;2023-08-08T10:49:05;25.92;;;5.95;;
74851;SDS011;63400;50.650;6.832;2023-08-08T10:51:37;25.65;;;6.30;;
74851;SDS011;63400;50.650;6.832;2023-08-08T10:54:04;25.80;;;6.35;;
74851;SDS011;63400;50.650;6.832;2023-08-08T10:56:52;23.50;;;6.00;;
74851;SDS011;63400;50.650;6.832;2023-08-08T10:59:20;26.25;;;6.57;;
74851;SDS011;63400;50.650;6.832;2023-08-08T11:01:51;26.48;;;6.18;;
74851;SDS011;63400;50.650;6.832;2023-08-08T11:04:21;28.00;;;6.75;;
74851;SDS011;63400;50.650;6.832;2023-08-08T11:06:48;29.40;;;6.72;;
74851;SDS011;63400;50.650;6.832;2023-08-08T11:11:41;29.83;;;7.07;;
74851;SDS011;63400;50.650;6.832;2023-08-08T11:14:12;31.42;;;7.47;;
74851;SDS011;63400;50.650;6.832;2023-08-08T11:16:52;28.38;;;6.80;;
74851;SDS011;63400;50.650;6.832;2023-08-08T11:19:18;30.52;;;7.00;;
74851;SDS011;63400;50.650;6.832;2023-08-08T11:21:45;32.42;;;7.35;;
74851;SDS011;63400;50.650;6.832;2023-08-08T11:24:12;23.92;;;5.65;;
74851;SDS011;63400;50.650;6.832;2023-08-08T11:26:39;20.65;;;5.35;;
74851;SDS011;63400;50.650;6.832;2023-08-08T11:29:06;24.67;;;5.85;;
74851;SDS011;63400;50.650;6.832;2023-08-08T11:31:33;24.08;;;5.55;;
74851;SDS011;63400;50.650;6.832;2023-08-08T11:33:59;25.90;;;5.93;;
74851;SDS011;63400;50.650;6.832;2023-08-08T11:36:34;26.23;;;6.18;;
74851;SDS011;63400;50.650;6.832;2023-08-08T11:39:03;24.27;;;5.78;;
74851;SDS011;63400;50.650;6.832;2023-08-08T11:41:33;26.90;;;6.13;;
74851;SDS011;63400;50.650;6.832;2023-08-08T11:43:59;34.40;;;7.55;;
74851;SDS011;63400;50.650;6.832;2023-08-08T11:46:27;30.13;;;7.05;;
74851;SDS011;63400;50.650;6.832;2023-08-08T11:48:52;26.15;;;6.43;;
74851;SDS011;63400;50.650;6.832;2023-08-08T11:51:18;29.48;;;6.97;;
74851;SDS011;63400;50.650;6.832;2023-08-08T11:53:50;29.00;;;6.75;;
74851;SDS011;63400;50.650;6.832;2023-08-08T11:56:17;28.58;;;6.90;;
74851;SDS011;63400;50.650;6.832;2023-08-08T11:58:44;30.20;;;7.25;;
74851;SDS011;63400;50.650;6.832;2023-08-08T12:01:09;31.50;;;7.78;;
74851;SDS011;63400;50.650;6.832;2023-08-08T12:03:36;26.60;;;6.75;;
74851;SDS011;63400;50.650;6.832;2023-08-08T12:06:11;29.80;;;7.10;;
74851;SDS011;63400;50.650;6.832;2023-08-08T12:08:46;27.17;;;7.05;;
74851;SDS011;63400;50.650;6.832;2023-08-08T12:11:12;26.88;;;6.88;;
74851;SDS011;63400;50.650;6.832;2023-08-08T12:13:39;30.35;;;7.63;;
74851;SDS011;63400;50.650;6.832;2023-08-08T12:16:09;24.88;;;6.38;;
74851;SDS011;63400;50.650;6.832;2023-08-08T12:18:38;24.58;;;6.63;;
74851;SDS011;63400;50.650;6.832;2023-08-08T12:21:05;26.45;;;6.68;;
74851;SDS011;63400;50.650;6.832;2023-08-08T12:23:31;22.90;;;5.50;;
74851;SDS011;63400;50.650;6.832;2023-08-08T12:25:57;24.65;;;6.68;;
74851;SDS011;63400;50.650;6.832;2023-08-08T12:28:24;22.63;;;6.15;;
74851;SDS011;63400;50.650;6.832;2023-08-08T12:30:49;21.50;;;5.97;;
74851;SDS011;63400;50.650;6.832;2023-08-08T12:33:15;21.95;;;5.82;;
74851;SDS011;63400;50.650;6.832;2023-08-08T12:35:40;21.08;;;5.70;;
74851;SDS011;63400;50.650;6.832;2023-08-08T12:38:06;22.98;;;5.93;;
74851;SDS011;63400;50.650;6.832;2023-08-08T12:40:31;27.20;;;6.43;;
74851;SDS011;63400;50.650;6.832;2023-08-08T12:42:57;21.50;;;5.97;;
74851;SDS011;63400;50.650;6.832;2023-08-08T12:45:22;22.35;;;5.82;;
74851;SDS011;63400;50.650;6.832;2023-08-08T12:47:48;20.90;;;6.30;;
74851;SDS011;63400;50.650;6.832;2023-08-08T12:50:13;20.73;;;5.82;;
74851;SDS011;63400;50.650;6.832;2023-08-08T12:52:39;24.40;;;6.10;;
74851;SDS011;63400;50.650;6.832;2023-08-08T12:55:05;24.05;;;6.07;;
74851;SDS011;63400;50.650;6.832;2023-08-08T12:57:32;22.70;;;6.55;;
74851;SDS011;63400;50.650;6.832;2023-08-08T12:59:58;21.45;;;5.70;;
74851;SDS011;63400;50.650;6.832;2023-08-08T13:02:24;23.50;;;6.07;;
74851;SDS011;63400;50.650;6.832;2023-08-08T13:04:49;20.15;;;5.65;;
74851;SDS011;63400;50.650;6.832;2023-08-08T13:07:15;23.05;;;6.68;;
74851;SDS011;63400;50.650;6.832;2023-08-08T13:09:41;24.90;;;6.55;;
74851;SDS011;63400;50.650;6.832;2023-08-08T13:12:07;22.23;;;6.10;;
74851;SDS011;63400;50.650;6.832;2023-08-08T13:14:32;22.77;;;6.05;;
74851;SDS011;63400;50.650;6.832;2023-08-08T13:16:58;17.83;;;5.47;;
74851;SDS011;63400;50.650;6.832;2023-08-08T13:19:24;19.77;;;5.50;;
74851;SDS011;63400;50.650;6.832;2023-08-08T13:21:53;21.13;;;6.05;;
74851;SDS011;63400;50.650;6.832;2023-08-08T13:24:19;24.40;;;5.53;;
74851;SDS011;63400;50.650;6.832;2023-08-08T13:26:46;24.02;;;6.57;;
74851;SDS011;63400;50.650;6.832;2023-08-08T13:29:11;19.10;;;5.40;;
74851;SDS011;63400;50.650;6.832;2023-08-08T13:31:37;21.52;;;5.70;;
74851;SDS011;63400;50.650;6.832;2023-08-08T13:34:02;17.80;;;4.78;;
74851;SDS011;63400;50.650;6.832;2023-08-08T13:36:28;19.85;;;5.38;;
74851;SDS011;63400;50.650;6.832;2023-08-08T13:38:54;21.88;;;6.40;;
74851;SDS011;63400;50.650;6.832;2023-08-08T13:41:19;18.63;;;4.68;;
74851;SDS011;63400;50.650;6.832;2023-08-08T13:43:45;20.27;;;5.03;;
74851;SDS011;63400;50.650;6.832;2023-08-08T13:46:10;19.85;;;5.18;;
74851;SDS011;63400;50.650;6.832;2023-08-08T13:48:36;17.63;;;4.68;;
74851;SDS011;63400;50.650;6.832;2023-08-08T13:51:02;18.60;;;5.15;;
74851;SDS011;63400;50.650;6.832;2023-08-08T13:53:30;17.70;;;4.65;;
74851;SDS011;63400;50.650;6.832;2023-08-08T13:55:56;22.60;;;5.63;;
74851;SDS011;63400;50.650;6.832;2023-08-08T13:58:21;22.50;;;5.45;;
74851;SDS011;63400;50.650;6.832;2023-08-08T14:00:50;21.60;;;5.95;;
74851;SDS011;63400;50.650;6.832;2023-08-08T14:03:16;18.23;;;4.95;;
74851;SDS011;63400;50.650;6.832;2023-08-08T14:05:42;23.40;;;5.82;;
74851;SDS011;63400;50.650;6.832;2023-08-08T14:08:08;22.48;;;5.28;;
74851;SDS011;63400;50.650;6.832;2023-08-08T14:10:34;17.63;;;5.38;;
74851;SDS011;63400;50.650;6.832;2023-08-08T14:13:00;17.90;;;4.40;;
74851;SDS011;63400;50.650;6.832;2023-08-08T14:15:25;22.55;;;5.97;;
74851;SDS011;63400;50.650;6.832;2023-08-08T14:17:51;20.27;;;5.22;;
74851;SDS011;63400;50.650;6.832;2023-08-08T14:20:16;21.65;;;5.32;;
74851;SDS011;63400;50.650;6.832;2023-08-08T14:22:44;18.25;;;4.80;;
74851;SDS011;63400;50.650;6.832;2023-08-08T14:25:11;17.73;;;4.95;;
74851;SDS011;63400;50.650;6.832;2023-08-08T14:27:37;20.08;;;5.25;;
74851;SDS011;63400;50.650;6.832;2023-08-08T14:30:03;21.98;;;5.50;;
74851;SDS011;63400;50.650;6.832;2023-08-08T14:32:29;21.77;;;5.78;;
74851;SDS011;63400;50.650;6.832;2023-08-08T14:34:55;20.02;;;6.15;;
74851;SDS011;63400;50.650;6.832;2023-08-08T14:37:20;20.40;;;5.60;;